createdAt,value
2023-04-08T00:02:17.067Z,6.50
2023-04-08T00:04:45.082Z,6.50
2023-04-08T00:07:14.317Z,6.50
2023-04-08T00:09:42.335Z,6.50
2023-04-08T00:12:10.325Z,6.50
2023-04-08T00:14:41.376Z,6.50
2023-04-08T00:17:09.648Z,6.50
2023-04-08T00:19:37.521Z,6.50
2023-04-08T00:22:05.708Z,6.50
2023-04-08T00:24:35.060Z,6.50
2023-04-08T00:27:03.414Z,6.50
2023-04-08T00:29:31.364Z,6.50
2023-04-08T00:31:59.394Z,6.50
2023-04-08T00:34:27.956Z,6.50
2023-04-08T00:36:56.311Z,6.50
2023-04-08T00:39:24.120Z,6.40
2023-04-08T00:41:53.387Z,6.50
2023-04-08T00:44:21.309Z,6.50
2023-04-08T00:46:49.374Z,6.50
2023-04-08T00:49:17.504Z,6.50
2023-04-08T00:51:45.350Z,6.60
2023-04-08T00:54:15.432Z,6.50
2023-04-08T00:56:45.278Z,6.50
2023-04-08T00:59:14.769Z,6.50
2023-04-08T01:01:49.768Z,6.50
2023-04-08T01:04:27.723Z,6.50
2023-04-08T01:07:02.072Z,6.50
2023-04-08T01:09:33.869Z,6.40
2023-04-08T01:12:06.525Z,6.40
2023-04-08T01:14:40.049Z,6.40
2023-04-08T01:17:09.671Z,6.40
2023-04-08T01:19:41.532Z,6.40
2023-04-08T01:22:26.702Z,6.40
2023-04-08T01:25:02.256Z,6.40
2023-04-08T01:27:32.747Z,6.40
2023-04-08T01:30:04.343Z,6.40
2023-04-08T01:32:33.667Z,6.40
2023-04-08T01:35:03.308Z,6.40
2023-04-08T01:37:32.411Z,6.40
2023-04-08T01:40:02.522Z,6.40
2023-04-08T01:42:33.558Z,6.40
2023-04-08T01:45:02.613Z,6.50
2023-04-08T01:47:31.525Z,6.40
2023-04-08T01:50:00.844Z,6.50
2023-04-08T01:52:31.132Z,6.40
2023-04-08T01:54:59.107Z,6.40
2023-04-08T01:57:32.964Z,6.30
2023-04-08T02:00:03.903Z,6.40
2023-04-08T02:02:48.842Z,6.40
2023-04-08T02:05:17.648Z,6.30
2023-04-08T02:07:46.738Z,6.30
2023-04-08T02:10:14.816Z,6.30
2023-04-08T02:12:45.008Z,6.40
2023-04-08T02:15:13.882Z,6.40
2023-04-08T02:17:49.809Z,6.30
2023-04-08T02:20:25.362Z,6.20
2023-04-08T02:22:59.560Z,6.30
2023-04-08T02:25:30.580Z,6.30
2023-04-08T02:28:03.947Z,6.20
2023-04-08T02:30:33.612Z,6.20
2023-04-08T02:33:04.421Z,6.20
2023-04-08T02:35:33.434Z,6.10
2023-04-08T02:38:01.338Z,6.10
2023-04-08T02:40:31.673Z,6.10
2023-04-08T02:43:02.594Z,6.10
2023-04-08T02:45:33.596Z,6.10
2023-04-08T02:48:02.462Z,6.10
2023-04-08T02:50:30.693Z,6.00
2023-04-08T02:52:58.609Z,6.00
2023-04-08T02:55:26.580Z,6.00
2023-04-08T02:57:54.438Z,6.00
2023-04-08T03:00:23.682Z,6.10
2023-04-08T03:02:51.860Z,6.00
2023-04-08T03:05:19.949Z,6.00
2023-04-08T03:07:47.809Z,6.00
2023-04-08T03:10:15.608Z,6.00
2023-04-08T03:12:43.533Z,6.00
2023-04-08T03:15:11.598Z,6.00
2023-04-08T03:17:40.909Z,6.00
2023-04-08T03:20:09.734Z,6.00
2023-04-08T03:22:37.896Z,6.00
2023-04-08T03:25:06.523Z,6.00
2023-04-08T03:27:34.457Z,6.00
2023-04-08T03:30:02.254Z,6.00
2023-04-08T03:32:30.189Z,6.10
2023-04-08T03:34:59.339Z,6.10
2023-04-08T03:37:27.213Z,6.00
2023-04-08T03:39:56.089Z,6.00
2023-04-08T03:42:24.379Z,6.00
2023-04-08T03:44:52.209Z,6.00
2023-04-08T03:47:21.065Z,6.00
2023-04-08T03:49:49.091Z,6.10
2023-04-08T03:52:19.042Z,6.10
2023-04-08T03:54:46.864Z,6.10
2023-04-08T03:57:14.727Z,6.10
2023-04-08T03:59:42.543Z,6.10
2023-04-08T04:02:10.466Z,6.00
2023-04-08T04:04:38.611Z,5.90
2023-04-08T04:07:06.574Z,6.00
2023-04-08T04:09:35.794Z,6.10
2023-04-08T04:12:03.766Z,6.00
2023-04-08T04:14:31.585Z,6.00
2023-04-08T04:16:59.502Z,6.00
2023-04-08T04:19:31.162Z,6.00
2023-04-08T04:21:59.026Z,6.10
2023-04-08T04:24:26.874Z,6.10
2023-04-08T04:26:56.468Z,6.00
2023-04-08T04:29:25.324Z,6.10
2023-04-08T04:31:53.115Z,6.10
2023-04-08T04:34:20.980Z,5.90
2023-04-08T04:36:48.802Z,5.90
2023-04-08T04:39:16.687Z,5.90
2023-04-08T04:41:44.662Z,6.00
2023-04-08T04:44:13.862Z,6.00
2023-04-08T04:46:41.650Z,6.00
2023-04-08T04:49:09.535Z,6.10
2023-04-08T04:51:37.441Z,6.10
2023-04-08T04:54:05.360Z,6.10
2023-04-08T04:56:33.328Z,6.10
2023-04-08T04:59:01.427Z,6.10
2023-04-08T05:01:30.612Z,6.10
2023-04-08T05:03:59.272Z,6.10
2023-04-08T05:06:27.550Z,6.00
2023-04-08T05:08:55.578Z,6.00
2023-04-08T05:11:23.440Z,6.00
2023-04-08T05:13:51.400Z,6.00
2023-04-08T05:16:19.306Z,5.90
2023-04-08T05:18:48.703Z,5.90
2023-04-08T05:21:18.266Z,5.90
2023-04-08T05:23:46.179Z,6.00
2023-04-08T05:26:15.903Z,5.90
2023-04-08T05:28:44.365Z,5.90
2023-04-08T05:31:12.242Z,6.00
2023-04-08T05:33:40.386Z,6.00
2023-04-08T05:36:09.610Z,6.00
2023-04-08T05:38:37.523Z,6.00
2023-04-08T05:41:05.387Z,6.00
2023-04-08T05:43:34.066Z,6.00
2023-04-08T05:46:02.104Z,6.00
2023-04-08T05:48:29.928Z,6.10
2023-04-08T05:50:57.728Z,6.00
2023-04-08T05:53:28.482Z,6.00
2023-04-08T05:55:56.374Z,6.00
2023-04-08T05:58:24.247Z,6.00
2023-04-08T06:00:52.162Z,6.00
2023-04-08T06:03:20.812Z,6.00
2023-04-08T06:05:48.956Z,6.00
2023-04-08T06:08:16.778Z,6.00
2023-04-08T06:10:51.294Z,6.00
2023-04-08T06:13:20.945Z,6.00
2023-04-08T06:15:50.206Z,5.80
2023-04-08T06:18:18.359Z,5.90
2023-04-08T06:20:46.400Z,5.90
2023-04-08T06:23:14.297Z,5.80
2023-04-08T06:25:42.446Z,5.90
2023-04-08T06:28:11.794Z,5.90
2023-04-08T06:30:39.632Z,5.90
2023-04-08T06:33:07.502Z,5.90
2023-04-08T06:35:37.350Z,5.80
2023-04-08T06:38:05.318Z,5.80
2023-04-08T06:40:33.272Z,5.80
2023-04-08T06:43:01.226Z,5.80
2023-04-08T06:45:43.074Z,5.90
2023-04-08T06:48:12.022Z,6.00
2023-04-08T06:50:39.842Z,6.00
2023-04-08T06:53:07.729Z,6.00
2023-04-08T06:55:35.564Z,6.10
2023-04-08T06:58:03.423Z,6.10
2023-04-08T07:00:31.428Z,6.10
2023-04-08T07:03:00.810Z,6.10
2023-04-08T07:05:28.703Z,6.00
2023-04-08T07:07:56.631Z,6.10
2023-04-08T07:10:25.345Z,6.10
2023-04-08T07:12:53.522Z,6.00
2023-04-08T07:15:21.694Z,6.10
2023-04-08T07:17:49.615Z,6.10
2023-04-08T07:20:19.214Z,6.20
2023-04-08T07:22:47.084Z,6.20
2023-04-08T07:25:15.062Z,6.10
2023-04-08T07:27:42.913Z,6.20
2023-04-08T07:30:11.330Z,6.10
2023-04-08T07:32:39.171Z,6.10
2023-04-08T07:35:08.659Z,6.10
2023-04-08T07:37:37.892Z,6.10
2023-04-08T07:40:07.569Z,6.20
2023-04-08T07:42:35.392Z,6.10
2023-04-08T07:45:03.536Z,6.10
2023-04-08T07:47:31.440Z,6.10
2023-04-08T07:49:59.317Z,6.10
2023-04-08T07:52:27.376Z,6.20
2023-04-08T07:54:56.714Z,6.20
2023-04-08T07:57:24.776Z,6.20
2023-04-08T07:59:52.738Z,6.10
2023-04-08T08:02:20.741Z,6.20
2023-04-08T08:04:48.674Z,6.20
2023-04-08T08:07:16.700Z,6.20
2023-04-08T08:09:44.628Z,6.20
2023-04-08T08:12:13.884Z,6.20
2023-04-08T08:14:41.694Z,6.30
2023-04-08T08:17:09.576Z,6.40
2023-04-08T08:19:37.387Z,6.40
2023-04-08T08:22:05.284Z,6.30
2023-04-08T08:24:33.091Z,6.30
2023-04-08T08:27:01.190Z,6.30
2023-04-08T08:29:30.400Z,6.30
2023-04-08T08:31:58.234Z,6.40
2023-04-08T08:34:26.051Z,6.40
2023-04-08T08:36:54.296Z,6.40
2023-04-08T08:39:22.323Z,6.50
2023-04-08T08:41:50.407Z,6.40
2023-04-08T08:44:18.344Z,6.50
2023-04-08T08:46:48.238Z,6.50
2023-04-08T08:49:16.432Z,6.60
2023-04-08T08:51:46.517Z,6.60
2023-04-08T08:54:15.938Z,6.70
2023-04-08T08:56:43.974Z,6.70
2023-04-08T08:59:11.845Z,6.70
2023-04-08T09:01:41.224Z,6.60
2023-04-08T09:04:14.295Z,6.70
2023-04-08T09:06:43.054Z,6.80
2023-04-08T09:09:13.522Z,6.90
2023-04-08T09:11:42.596Z,7.00
2023-04-08T09:14:24.504Z,7.00
2023-04-08T09:16:53.230Z,6.90
2023-04-08T09:19:22.601Z,6.80
2023-04-08T09:22:06.343Z,6.80
2023-04-08T09:24:34.594Z,6.80
2023-04-08T09:27:02.474Z,6.80
2023-04-08T09:29:33.849Z,6.90
2023-04-08T09:32:03.384Z,6.80
2023-04-08T09:34:34.493Z,6.80
2023-04-08T09:37:03.691Z,6.70
2023-04-08T09:39:32.388Z,6.70
2023-04-08T09:42:03.762Z,6.70
2023-04-08T09:44:34.488Z,6.80
2023-04-08T09:47:09.354Z,6.80
2023-04-08T09:49:44.646Z,6.90
2023-04-08T09:52:16.581Z,6.90
2023-04-08T09:54:55.534Z,6.90
2023-04-08T09:57:29.925Z,7.00
2023-04-08T10:00:05.334Z,7.00
2023-04-08T10:02:50.453Z,7.00
2023-04-08T10:05:21.281Z,7.10
2023-04-08T10:07:51.269Z,7.10
2023-04-08T10:10:19.842Z,7.10
2023-04-08T10:12:47.883Z,7.20
2023-04-08T10:15:30.484Z,7.10
2023-04-08T10:18:35.097Z,7.00
2023-04-08T10:21:03.549Z,7.00
2023-04-08T10:23:54.570Z,7.00
2023-04-08T10:26:36.658Z,6.90
2023-04-08T10:29:34.933Z,6.90
2023-04-08T10:32:02.956Z,7.00
2023-04-08T10:34:32.223Z,6.90
2023-04-08T10:37:02.112Z,6.90
2023-04-08T10:39:31.344Z,6.90
2023-04-08T10:41:59.203Z,6.90
2023-04-08T10:44:27.686Z,6.90
2023-04-08T10:46:56.349Z,7.00
2023-04-08T10:49:33.152Z,7.00
2023-04-08T10:52:07.489Z,6.90
2023-04-08T10:54:35.527Z,7.00
2023-04-08T10:57:03.552Z,7.00
2023-04-08T10:59:33.245Z,7.00
2023-04-08T11:02:02.454Z,7.20
2023-04-08T11:04:30.812Z,7.30
2023-04-08T11:06:59.086Z,7.50
2023-04-08T11:09:28.362Z,7.50
2023-04-08T11:11:56.576Z,7.50
2023-04-08T11:14:26.846Z,7.60
2023-04-08T11:16:54.794Z,7.60
2023-04-08T11:19:22.800Z,7.60
2023-04-08T11:21:52.563Z,7.50
2023-04-08T11:24:22.268Z,7.50
2023-04-08T11:26:51.839Z,7.60
2023-04-08T11:29:20.059Z,7.50
2023-04-08T11:31:49.565Z,7.50
2023-04-08T11:34:24.663Z,7.50
2023-04-08T11:36:53.277Z,7.50
2023-04-08T11:39:24.203Z,7.50
2023-04-08T11:41:53.530Z,7.60
2023-04-08T11:44:21.660Z,7.60
2023-04-08T11:46:55.249Z,7.60
2023-04-08T11:49:23.191Z,7.60
2023-04-08T11:52:00.100Z,7.70
2023-04-08T11:54:28.799Z,7.60
2023-04-08T11:56:59.024Z,7.70
2023-04-08T11:59:29.510Z,7.70
2023-04-08T12:01:58.786Z,7.80
2023-04-08T12:04:26.791Z,7.90
2023-04-08T12:06:56.285Z,7.90
2023-04-08T12:09:25.608Z,7.90
2023-04-08T12:11:53.416Z,7.90
2023-04-08T12:14:26.818Z,7.90
2023-04-08T12:16:56.020Z,7.90
2023-04-08T12:19:23.816Z,7.90
2023-04-08T12:21:51.783Z,7.90
2023-04-08T12:24:19.985Z,7.80
2023-04-08T12:26:47.818Z,7.80
2023-04-08T12:29:15.760Z,7.80
2023-04-08T12:31:45.040Z,7.80
2023-04-08T12:34:13.253Z,7.80
2023-04-08T12:36:41.858Z,7.90
2023-04-08T12:39:10.055Z,8.00
2023-04-08T12:41:37.935Z,8.00
2023-04-08T12:44:06.515Z,7.90
2023-04-08T12:46:34.745Z,7.80
2023-04-08T12:49:05.400Z,7.80
2023-04-08T12:51:34.134Z,7.90
2023-04-08T12:54:03.277Z,7.80
2023-04-08T12:56:31.539Z,7.80
2023-04-08T12:58:59.517Z,7.90
2023-04-08T13:01:27.671Z,7.80
2023-04-08T13:03:56.314Z,7.70
2023-04-08T13:06:25.872Z,7.80
2023-04-08T13:08:53.792Z,7.80
2023-04-08T13:11:22.184Z,7.80
2023-04-08T13:13:50.420Z,7.80
2023-04-08T13:16:18.423Z,7.80
2023-04-08T13:18:46.553Z,7.80
2023-04-08T13:21:14.383Z,7.90
2023-04-08T13:23:43.557Z,7.90
2023-04-08T13:26:11.524Z,7.90
2023-04-08T13:28:50.107Z,7.90
2023-04-08T13:31:24.424Z,7.80
2023-04-08T13:33:54.517Z,7.80
2023-04-08T13:36:24.283Z,7.80
2023-04-08T13:38:53.723Z,7.90
2023-04-08T13:41:22.022Z,7.90
2023-04-08T13:43:50.325Z,7.80
2023-04-08T13:46:18.629Z,7.80
2023-04-08T13:48:46.845Z,7.90
2023-04-08T13:51:14.843Z,7.90
2023-04-08T13:53:42.675Z,7.90
2023-04-08T13:56:11.876Z,7.80
2023-04-08T13:58:39.713Z,7.80
2023-04-08T14:01:07.662Z,7.90
2023-04-08T14:03:35.582Z,7.90
2023-04-08T14:06:03.438Z,7.90
2023-04-08T14:08:31.528Z,7.90
2023-04-08T14:10:59.397Z,7.80
2023-04-08T14:13:28.611Z,7.90
2023-04-08T14:15:58.262Z,7.80
2023-04-08T14:18:26.350Z,7.80
2023-04-08T14:20:54.269Z,7.90
2023-04-08T14:23:22.140Z,7.80
2023-04-08T14:25:50.164Z,7.80
2023-04-08T14:28:17.962Z,8.00
2023-04-08T14:30:47.443Z,7.90
2023-04-08T14:33:15.417Z,8.10
2023-04-08T14:35:43.362Z,8.20
2023-04-08T14:38:11.302Z,8.20
2023-04-08T14:40:39.175Z,8.30
2023-04-08T14:43:07.329Z,8.30
2023-04-08T14:45:35.509Z,8.30
2023-04-08T14:48:04.956Z,8.30
2023-04-08T14:50:32.864Z,8.40
2023-04-08T14:53:01.067Z,8.40
2023-04-08T14:55:30.000Z,8.50
2023-04-08T14:57:59.839Z,8.50
2023-04-08T15:00:28.916Z,8.50
2023-04-08T15:02:56.865Z,8.40
2023-04-08T15:05:26.519Z,8.40
2023-04-08T15:07:55.424Z,8.30
2023-04-08T15:10:23.327Z,8.30
2023-04-08T15:12:51.098Z,8.30
2023-04-08T15:15:19.027Z,8.20
2023-04-08T15:17:46.957Z,8.30
2023-04-08T15:20:14.876Z,8.30
2023-04-08T15:22:44.030Z,8.30
2023-04-08T15:25:11.945Z,8.40
2023-04-08T15:27:40.189Z,8.40
2023-04-08T15:30:11.244Z,8.40
2023-04-08T15:32:41.228Z,8.40
2023-04-08T15:35:10.199Z,8.50
2023-04-08T15:37:38.159Z,8.30
2023-04-08T15:40:09.050Z,8.40
2023-04-08T15:42:36.914Z,8.30
2023-04-08T15:45:05.279Z,8.20
2023-04-08T15:47:34.330Z,8.30
2023-04-08T15:50:02.341Z,8.20
2023-04-08T15:52:30.272Z,8.10
2023-04-08T15:54:58.787Z,8.00
2023-04-08T15:57:28.223Z,8.00
2023-04-08T15:59:56.189Z,8.10
2023-04-08T16:02:25.528Z,8.20
2023-04-08T16:04:53.519Z,8.20
2023-04-08T16:07:21.375Z,8.20
2023-04-08T16:09:49.169Z,8.20
2023-04-08T16:12:17.086Z,8.20
2023-04-08T16:14:47.764Z,8.30
2023-04-08T16:17:16.389Z,8.30
2023-04-08T16:19:44.217Z,8.30
2023-04-08T16:22:12.058Z,8.30
2023-04-08T16:24:39.898Z,8.10
2023-04-08T16:27:07.776Z,8.10
2023-04-08T16:29:35.832Z,8.20
2023-04-08T16:32:05.258Z,8.20
2023-04-08T16:34:33.188Z,8.20
2023-04-08T16:37:01.260Z,8.00
2023-04-08T16:39:29.260Z,7.90
2023-04-08T16:41:57.164Z,7.90
2023-04-08T16:44:25.284Z,7.90
2023-04-08T16:46:53.930Z,7.90
2023-04-08T16:49:23.144Z,7.80
2023-04-08T16:51:50.995Z,7.90
2023-04-08T16:54:18.808Z,7.90
2023-04-08T16:56:46.682Z,7.80
2023-04-08T16:59:14.652Z,7.80
2023-04-08T17:01:42.623Z,7.80
2023-04-08T17:04:10.606Z,7.80
2023-04-08T17:06:41.379Z,7.80
2023-04-08T17:09:09.518Z,7.80
2023-04-08T17:11:37.381Z,7.80
2023-04-08T17:14:05.520Z,7.80
2023-04-08T17:16:33.376Z,7.80
2023-04-08T17:19:01.311Z,7.80
2023-04-08T17:21:29.201Z,7.80
2023-04-08T17:23:58.454Z,7.80
2023-04-08T17:26:26.266Z,7.70
2023-04-08T17:28:54.451Z,7.70
2023-04-08T17:31:22.615Z,7.70
2023-04-08T17:33:51.166Z,7.70
2023-04-08T17:36:19.223Z,7.60
2023-04-08T17:38:49.294Z,7.70
2023-04-08T17:41:29.814Z,7.60
2023-04-08T17:44:03.234Z,7.50
2023-04-08T17:46:33.385Z,7.60
2023-04-08T17:49:01.347Z,7.60
2023-04-08T17:51:30.172Z,7.50
2023-04-08T17:53:58.064Z,7.50
2023-04-08T17:56:27.709Z,7.50
2023-04-08T17:58:55.824Z,7.50
2023-04-08T18:01:23.955Z,7.50
2023-04-08T18:03:52.311Z,7.60
2023-04-08T18:06:20.424Z,7.60
2023-04-08T18:08:48.535Z,7.50
2023-04-08T18:11:16.443Z,7.60
2023-04-08T18:13:46.019Z,7.50
2023-04-08T18:16:17.847Z,7.50
2023-04-08T18:18:45.819Z,7.50
2023-04-08T18:21:14.935Z,7.40
2023-04-08T18:23:42.940Z,7.30
2023-04-08T18:26:10.939Z,7.40
2023-04-08T18:28:38.856Z,7.50
2023-04-08T18:31:08.098Z,7.50
2023-04-08T18:33:36.251Z,7.50
2023-04-08T18:36:08.141Z,7.50
2023-04-08T18:38:36.697Z,7.40
2023-04-08T18:41:04.819Z,7.40
2023-04-08T18:43:33.069Z,7.40
2023-04-08T18:46:01.321Z,7.40
2023-04-08T18:48:30.691Z,7.40
2023-04-08T18:50:58.610Z,7.40
2023-04-08T18:53:26.546Z,7.40
2023-04-08T18:55:55.017Z,7.40
2023-04-08T18:58:22.909Z,7.40
2023-04-08T19:00:50.929Z,7.40
2023-04-08T19:03:18.934Z,7.40
2023-04-08T19:05:48.260Z,7.40
2023-04-08T19:08:16.059Z,7.50
2023-04-08T19:10:43.946Z,7.50
2023-04-08T19:13:11.800Z,7.50
2023-04-08T19:15:39.829Z,7.50
2023-04-08T19:18:07.725Z,7.50
2023-04-08T19:20:35.616Z,7.50
2023-04-08T19:23:05.721Z,7.50
2023-04-08T19:25:33.942Z,7.50
2023-04-08T19:28:02.051Z,7.50
2023-04-08T19:30:29.911Z,7.50
2023-04-08T19:32:58.574Z,7.50
2023-04-08T19:35:26.590Z,7.50
2023-04-08T19:37:54.392Z,7.40
2023-04-08T19:40:23.654Z,7.40
2023-04-08T19:42:51.616Z,7.50
2023-04-08T19:45:19.620Z,7.50
2023-04-08T19:47:47.650Z,7.50
2023-04-08T19:50:15.472Z,7.60
2023-04-08T19:52:43.387Z,7.60
2023-04-08T19:55:11.436Z,7.50
2023-04-08T19:57:41.027Z,7.50
2023-04-08T20:00:10.858Z,7.50
2023-04-08T20:02:40.210Z,7.50
2023-04-08T20:05:14.454Z,7.50
2023-04-08T20:07:42.498Z,7.50
2023-04-08T20:10:11.040Z,7.50
2023-04-08T20:12:41.326Z,7.50
2023-04-08T20:15:22.770Z,7.40
2023-04-08T20:17:52.990Z,7.40
2023-04-08T20:20:21.198Z,7.40
2023-04-08T20:22:49.380Z,7.50
2023-04-08T20:25:17.219Z,7.50
2023-04-08T20:27:46.584Z,7.50
2023-04-08T20:30:14.576Z,7.50
2023-04-08T20:32:42.564Z,7.50
2023-04-08T20:35:10.886Z,7.60
2023-04-08T20:37:38.783Z,7.50
2023-04-08T20:40:08.180Z,7.40
2023-04-08T20:42:36.416Z,7.50
2023-04-08T20:45:06.545Z,7.50
2023-04-08T20:47:34.443Z,7.60
2023-04-08T20:50:02.461Z,7.60
2023-04-08T20:52:30.321Z,7.60
2023-04-08T20:54:58.250Z,7.60
2023-04-08T20:57:26.157Z,7.60
2023-04-08T20:59:54.023Z,7.60
2023-04-08T21:02:24.279Z,7.60
2023-04-08T21:04:52.478Z,7.60
2023-04-08T21:07:20.303Z,7.60
2023-04-08T21:09:49.055Z,7.60
2023-04-08T21:12:16.867Z,7.60
2023-04-08T21:14:45.989Z,7.60
2023-04-08T21:17:14.056Z,7.60
2023-04-08T21:19:43.360Z,7.60
2023-04-08T21:22:11.217Z,7.60
2023-04-08T21:24:39.003Z,7.70
2023-04-08T21:27:06.933Z,7.70
2023-04-08T21:29:34.757Z,7.60
2023-04-08T21:32:02.626Z,7.60
2023-04-08T21:34:30.966Z,7.60
2023-04-08T21:37:00.463Z,7.60
2023-04-08T21:39:28.448Z,7.60
2023-04-08T21:41:57.381Z,7.60
2023-04-08T21:44:25.611Z,7.60
2023-04-08T21:46:54.050Z,7.60
2023-04-08T21:49:21.962Z,7.50
2023-04-08T21:51:49.740Z,7.60
2023-04-08T21:54:18.910Z,7.60
2023-04-08T21:56:46.724Z,7.50
2023-04-08T21:59:14.570Z,7.60
2023-04-08T22:01:42.483Z,7.60
2023-04-08T22:04:10.978Z,7.60
2023-04-08T22:06:38.918Z,7.60
2023-04-08T22:09:07.139Z,7.60
2023-04-08T22:11:36.385Z,7.60
2023-04-08T22:14:04.251Z,7.60
2023-04-08T22:16:33.022Z,7.60
2023-04-08T22:19:01.315Z,7.50
2023-04-08T22:21:29.235Z,7.50
2023-04-08T22:23:57.066Z,7.50
2023-04-08T22:26:24.878Z,7.50
2023-04-08T22:28:54.385Z,7.40
2023-04-08T22:31:22.578Z,7.40
2023-04-08T22:33:50.466Z,7.40
2023-04-08T22:36:18.385Z,7.40
2023-04-08T22:38:46.223Z,7.40
2023-04-08T22:41:20.664Z,7.40
2023-04-08T22:43:49.006Z,7.30
2023-04-08T22:46:19.982Z,7.30
2023-04-08T22:48:49.128Z,7.40
2023-04-08T22:51:17.357Z,7.30
2023-04-08T22:53:45.444Z,7.30
2023-04-08T22:56:13.240Z,7.30
2023-04-08T22:58:41.091Z,7.30
2023-04-08T23:01:13.643Z,7.30
2023-04-08T23:03:43.010Z,7.10
2023-04-08T23:06:11.355Z,7.10
2023-04-08T23:08:39.586Z,7.20
2023-04-08T23:11:07.728Z,7.20
2023-04-08T23:13:35.706Z,7.20
2023-04-08T23:16:03.772Z,7.20
2023-04-08T23:18:31.712Z,7.20
2023-04-08T23:21:00.916Z,7.10
2023-04-08T23:23:28.910Z,7.20
2023-04-08T23:25:56.771Z,7.20
2023-04-08T23:28:24.850Z,7.20
2023-04-08T23:30:52.780Z,7.20
2023-04-08T23:33:20.849Z,7.10
2023-04-08T23:35:49.580Z,7.10
2023-04-08T23:38:18.850Z,7.10
2023-04-08T23:40:46.765Z,7.20
2023-04-08T23:43:14.854Z,7.20
2023-04-08T23:45:42.744Z,7.10
2023-04-08T23:48:10.559Z,7.20
2023-04-08T23:50:38.409Z,7.20
2023-04-08T23:53:06.248Z,7.20
2023-04-08T23:55:36.181Z,7.20
2023-04-08T23:58:04.072Z,7.30
